sensor_id;sensor_type;location;lat;lon;timestamp;P1;durP1;ratioP1;P2;durP2;ratioP2
27985;SDS011;15453;53.692;10.168;2022-08-25T00:01:17;4.53;;;2.38;;
27985;SDS011;15453;53.692;10.168;2022-08-25T00:03:47;4.03;;;2.70;;
27985;SDS011;15453;53.692;10.168;2022-08-25T00:06:13;5.13;;;2.30;;
27985;SDS011;15453;53.692;10.168;2022-08-25T00:08:40;4.95;;;2.63;;
27985;SDS011;15453;53.692;10.168;2022-08-25T00:11:07;6.32;;;3.00;;
27985;SDS011;15453;53.692;10.168;2022-08-25T00:13:36;4.80;;;2.42;;
27985;SDS011;15453;53.692;10.168;2022-08-25T00:16:08;4.95;;;2.72;;
27985;SDS011;15453;53.692;10.168;2022-08-25T00:18:34;2.90;;;2.25;;
27985;SDS011;15453;53.692;10.168;2022-08-25T00:21:01;4.75;;;2.53;;
27985;SDS011;15453;53.692;10.168;2022-08-25T00:23:26;3.97;;;2.65;;
27985;SDS011;15453;53.692;10.168;2022-08-25T00:25:51;7.38;;;2.83;;
27985;SDS011;15453;53.692;10.168;2022-08-25T00:28:17;8.50;;;3.03;;
27985;SDS011;15453;53.692;10.168;2022-08-25T00:30:43;6.70;;;2.63;;
27985;SDS011;15453;53.692;10.168;2022-08-25T00:33:08;5.90;;;2.70;;
27985;SDS011;15453;53.692;10.168;2022-08-25T00:35:34;3.65;;;2.10;;
27985;SDS011;15453;53.692;10.168;2022-08-25T00:37:59;4.57;;;2.75;;
27985;SDS011;15453;53.692;10.168;2022-08-25T00:40:25;4.50;;;2.65;;
27985;SDS011;15453;53.692;10.168;2022-08-25T00:42:52;5.22;;;2.97;;
27985;SDS011;15453;53.692;10.168;2022-08-25T00:45:18;5.40;;;2.92;;
27985;SDS011;15453;53.692;10.168;2022-08-25T00:47:43;6.28;;;3.40;;
27985;SDS011;15453;53.692;10.168;2022-08-25T00:50:08;5.07;;;2.72;;
27985;SDS011;15453;53.692;10.168;2022-08-25T00:52:40;5.82;;;2.88;;
27985;SDS011;15453;53.692;10.168;2022-08-25T00:55:18;3.45;;;2.47;;
27985;SDS011;15453;53.692;10.168;2022-08-25T00:57:57;5.82;;;2.55;;
27985;SDS011;15453;53.692;10.168;2022-08-25T01:00:28;4.78;;;3.10;;
27985;SDS011;15453;53.692;10.168;2022-08-25T01:02:58;5.10;;;2.65;;
27985;SDS011;15453;53.692;10.168;2022-08-25T01:05:25;10.20;;;3.40;;
27985;SDS011;15453;53.692;10.168;2022-08-25T01:07:52;6.82;;;3.53;;
27985;SDS011;15453;53.692;10.168;2022-08-25T01:10:18;4.80;;;2.83;;
27985;SDS011;15453;53.692;10.168;2022-08-25T01:12:45;7.18;;;2.72;;
27985;SDS011;15453;53.692;10.168;2022-08-25T01:15:12;6.57;;;2.97;;
27985;SDS011;15453;53.692;10.168;2022-08-25T01:17:44;5.20;;;3.47;;
27985;SDS011;15453;53.692;10.168;2022-08-25T01:20:12;4.60;;;3.03;;
27985;SDS011;15453;53.692;10.168;2022-08-25T01:22:38;4.65;;;3.08;;
27985;SDS011;15453;53.692;10.168;2022-08-25T01:25:04;8.30;;;2.97;;
27985;SDS011;15453;53.692;10.168;2022-08-25T01:27:39;4.30;;;2.58;;
27985;SDS011;15453;53.692;10.168;2022-08-25T01:30:05;4.18;;;2.53;;
27985;SDS011;15453;53.692;10.168;2022-08-25T01:32:32;8.23;;;2.95;;
27985;SDS011;15453;53.692;10.168;2022-08-25T01:34:58;6.20;;;2.80;;
27985;SDS011;15453;53.692;10.168;2022-08-25T01:37:24;4.25;;;2.83;;
27985;SDS011;15453;53.692;10.168;2022-08-25T01:39:49;8.05;;;3.30;;
27985;SDS011;15453;53.692;10.168;2022-08-25T01:42:28;7.53;;;3.13;;
27985;SDS011;15453;53.692;10.168;2022-08-25T01:45:26;3.88;;;2.60;;
27985;SDS011;15453;53.692;10.168;2022-08-25T01:47:51;6.35;;;2.90;;
27985;SDS011;15453;53.692;10.168;2022-08-25T01:50:16;6.32;;;3.13;;
27985;SDS011;15453;53.692;10.168;2022-08-25T01:52:55;4.22;;;2.88;;
27985;SDS011;15453;53.692;10.168;2022-08-25T01:55:24;5.43;;;2.55;;
27985;SDS011;15453;53.692;10.168;2022-08-25T01:57:50;4.78;;;3.03;;
27985;SDS011;15453;53.692;10.168;2022-08-25T02:00:16;5.57;;;3.20;;
27985;SDS011;15453;53.692;10.168;2022-08-25T02:02:42;4.32;;;2.72;;
27985;SDS011;15453;53.692;10.168;2022-08-25T02:05:09;4.05;;;2.58;;
27985;SDS011;15453;53.692;10.168;2022-08-25T02:07:35;4.28;;;2.88;;
27985;SDS011;15453;53.692;10.168;2022-08-25T02:10:01;4.53;;;2.60;;
27985;SDS011;15453;53.692;10.168;2022-08-25T02:12:30;5.47;;;3.17;;
27985;SDS011;15453;53.692;10.168;2022-08-25T02:14:56;3.88;;;2.67;;
27985;SDS011;15453;53.692;10.168;2022-08-25T02:17:22;4.20;;;2.90;;
27985;SDS011;15453;53.692;10.168;2022-08-25T02:19:48;4.82;;;2.85;;
27985;SDS011;15453;53.692;10.168;2022-08-25T02:22:13;5.22;;;2.78;;
27985;SDS011;15453;53.692;10.168;2022-08-25T02:24:39;3.03;;;2.67;;
27985;SDS011;15453;53.692;10.168;2022-08-25T02:27:04;3.88;;;2.90;;
27985;SDS011;15453;53.692;10.168;2022-08-25T02:29:29;6.28;;;2.95;;
27985;SDS011;15453;53.692;10.168;2022-08-25T02:31:55;6.63;;;3.20;;
27985;SDS011;15453;53.692;10.168;2022-08-25T02:34:20;4.90;;;3.20;;
27985;SDS011;15453;53.692;10.168;2022-08-25T02:36:47;3.85;;;2.53;;
27985;SDS011;15453;53.692;10.168;2022-08-25T02:39:12;3.95;;;2.80;;
27985;SDS011;15453;53.692;10.168;2022-08-25T02:41:37;5.45;;;2.95;;
27985;SDS011;15453;53.692;10.168;2022-08-25T02:44:03;3.47;;;2.80;;
27985;SDS011;15453;53.692;10.168;2022-08-25T02:46:30;6.22;;;2.83;;
27985;SDS011;15453;53.692;10.168;2022-08-25T02:48:55;5.13;;;3.17;;
27985;SDS011;15453;53.692;10.168;2022-08-25T02:51:22;4.93;;;2.50;;
27985;SDS011;15453;53.692;10.168;2022-08-25T02:53:48;6.00;;;2.88;;
27985;SDS011;15453;53.692;10.168;2022-08-25T02:56:14;9.18;;;2.75;;
27985;SDS011;15453;53.692;10.168;2022-08-25T02:58:41;5.35;;;2.90;;
27985;SDS011;15453;53.692;10.168;2022-08-25T03:01:07;7.00;;;3.00;;
27985;SDS011;15453;53.692;10.168;2022-08-25T03:03:36;6.07;;;3.28;;
27985;SDS011;15453;53.692;10.168;2022-08-25T03:06:04;3.55;;;2.50;;
27985;SDS011;15453;53.692;10.168;2022-08-25T03:08:30;4.35;;;2.50;;
27985;SDS011;15453;53.692;10.168;2022-08-25T03:10:55;4.78;;;2.90;;
27985;SDS011;15453;53.692;10.168;2022-08-25T03:13:21;4.93;;;2.88;;
27985;SDS011;15453;53.692;10.168;2022-08-25T03:15:46;4.72;;;2.53;;
27985;SDS011;15453;53.692;10.168;2022-08-25T03:18:11;6.43;;;3.03;;
27985;SDS011;15453;53.692;10.168;2022-08-25T03:20:37;4.00;;;2.70;;
27985;SDS011;15453;53.692;10.168;2022-08-25T03:23:03;4.55;;;2.78;;
27985;SDS011;15453;53.692;10.168;2022-08-25T03:25:29;6.30;;;2.67;;
27985;SDS011;15453;53.692;10.168;2022-08-25T03:28:13;2.97;;;2.08;;
27985;SDS011;15453;53.692;10.168;2022-08-25T03:30:38;5.90;;;2.72;;
27985;SDS011;15453;53.692;10.168;2022-08-25T03:33:04;5.85;;;3.00;;
27985;SDS011;15453;53.692;10.168;2022-08-25T03:35:30;4.03;;;2.55;;
27985;SDS011;15453;53.692;10.168;2022-08-25T03:37:56;4.15;;;2.75;;
27985;SDS011;15453;53.692;10.168;2022-08-25T03:40:22;4.10;;;2.72;;
27985;SDS011;15453;53.692;10.168;2022-08-25T03:42:47;4.05;;;2.95;;
27985;SDS011;15453;53.692;10.168;2022-08-25T03:45:13;3.38;;;2.78;;
27985;SDS011;15453;53.692;10.168;2022-08-25T03:47:40;3.13;;;2.60;;
27985;SDS011;15453;53.692;10.168;2022-08-25T03:50:07;5.63;;;2.65;;
27985;SDS011;15453;53.692;10.168;2022-08-25T03:52:34;4.45;;;2.63;;
27985;SDS011;15453;53.692;10.168;2022-08-25T03:55:02;13.13;;;3.38;;
27985;SDS011;15453;53.692;10.168;2022-08-25T03:57:30;5.43;;;2.90;;
27985;SDS011;15453;53.692;10.168;2022-08-25T03:59:55;3.60;;;2.95;;
27985;SDS011;15453;53.692;10.168;2022-08-25T04:02:20;4.75;;;2.85;;
27985;SDS011;15453;53.692;10.168;2022-08-25T04:04:45;3.58;;;2.70;;
27985;SDS011;15453;53.692;10.168;2022-08-25T04:07:11;5.95;;;2.88;;
27985;SDS011;15453;53.692;10.168;2022-08-25T04:09:37;4.45;;;3.00;;
27985;SDS011;15453;53.692;10.168;2022-08-25T04:12:02;5.70;;;3.08;;
27985;SDS011;15453;53.692;10.168;2022-08-25T04:14:28;6.63;;;3.13;;
27985;SDS011;15453;53.692;10.168;2022-08-25T04:16:53;6.57;;;3.05;;
27985;SDS011;15453;53.692;10.168;2022-08-25T04:19:19;4.20;;;3.15;;
27985;SDS011;15453;53.692;10.168;2022-08-25T04:21:44;5.78;;;2.75;;
27985;SDS011;15453;53.692;10.168;2022-08-25T04:24:10;6.93;;;3.05;;
27985;SDS011;15453;53.692;10.168;2022-08-25T04:26:39;8.23;;;3.40;;
27985;SDS011;15453;53.692;10.168;2022-08-25T04:29:07;5.18;;;3.30;;
27985;SDS011;15453;53.692;10.168;2022-08-25T04:31:34;7.65;;;4.47;;
27985;SDS011;15453;53.692;10.168;2022-08-25T04:34:01;6.53;;;3.72;;
27985;SDS011;15453;53.692;10.168;2022-08-25T04:36:27;8.88;;;4.18;;
27985;SDS011;15453;53.692;10.168;2022-08-25T04:38:53;5.80;;;4.13;;
27985;SDS011;15453;53.692;10.168;2022-08-25T04:41:19;7.63;;;4.57;;
27985;SDS011;15453;53.692;10.168;2022-08-25T04:43:46;6.95;;;4.40;;
27985;SDS011;15453;53.692;10.168;2022-08-25T04:46:16;7.47;;;4.65;;
27985;SDS011;15453;53.692;10.168;2022-08-25T04:48:43;8.65;;;4.25;;
27985;SDS011;15453;53.692;10.168;2022-08-25T04:51:10;6.55;;;4.93;;
27985;SDS011;15453;53.692;10.168;2022-08-25T04:53:37;9.25;;;4.78;;
27985;SDS011;15453;53.692;10.168;2022-08-25T04:56:07;7.95;;;4.78;;
27985;SDS011;15453;53.692;10.168;2022-08-25T04:58:34;6.63;;;4.63;;
27985;SDS011;15453;53.692;10.168;2022-08-25T05:01:01;7.03;;;4.80;;
27985;SDS011;15453;53.692;10.168;2022-08-25T05:03:40;7.32;;;5.65;;
27985;SDS011;15453;53.692;10.168;2022-08-25T05:06:05;7.20;;;5.45;;
27985;SDS011;15453;53.692;10.168;2022-08-25T05:08:31;6.28;;;5.57;;
27985;SDS011;15453;53.692;10.168;2022-08-25T05:10:57;12.68;;;5.88;;
27985;SDS011;15453;53.692;10.168;2022-08-25T05:13:23;10.00;;;6.47;;
27985;SDS011;15453;53.692;10.168;2022-08-25T05:15:53;11.50;;;6.05;;
27985;SDS011;15453;53.692;10.168;2022-08-25T05:18:23;8.25;;;6.10;;
27985;SDS011;15453;53.692;10.168;2022-08-25T05:20:50;7.35;;;5.68;;
27985;SDS011;15453;53.692;10.168;2022-08-25T05:23:18;7.82;;;6.68;;
27985;SDS011;15453;53.692;10.168;2022-08-25T05:25:44;8.50;;;6.55;;
27985;SDS011;15453;53.692;10.168;2022-08-25T05:28:09;7.40;;;6.55;;
27985;SDS011;15453;53.692;10.168;2022-08-25T05:30:38;9.55;;;6.32;;
27985;SDS011;15453;53.692;10.168;2022-08-25T05:33:05;9.23;;;7.03;;
27985;SDS011;15453;53.692;10.168;2022-08-25T05:35:31;7.97;;;6.68;;
27985;SDS011;15453;53.692;10.168;2022-08-25T05:37:57;7.97;;;6.72;;
27985;SDS011;15453;53.692;10.168;2022-08-25T05:40:22;7.90;;;6.57;;
27985;SDS011;15453;53.692;10.168;2022-08-25T05:42:48;11.70;;;7.45;;
27985;SDS011;15453;53.692;10.168;2022-08-25T05:45:14;9.35;;;7.55;;
27985;SDS011;15453;53.692;10.168;2022-08-25T05:47:39;14.55;;;7.95;;
27985;SDS011;15453;53.692;10.168;2022-08-25T05:50:05;11.15;;;8.00;;
27985;SDS011;15453;53.692;10.168;2022-08-25T05:52:31;11.63;;;7.85;;
27985;SDS011;15453;53.692;10.168;2022-08-25T05:54:56;10.70;;;8.90;;
27985;SDS011;15453;53.692;10.168;2022-08-25T05:57:22;9.15;;;7.40;;
27985;SDS011;15453;53.692;10.168;2022-08-25T05:59:47;9.38;;;7.38;;
27985;SDS011;15453;53.692;10.168;2022-08-25T06:02:12;11.65;;;7.95;;
27985;SDS011;15453;53.692;10.168;2022-08-25T06:04:56;10.80;;;8.10;;
27985;SDS011;15453;53.692;10.168;2022-08-25T06:07:24;8.57;;;7.78;;
27985;SDS011;15453;53.692;10.168;2022-08-25T06:09:50;10.75;;;7.70;;
27985;SDS011;15453;53.692;10.168;2022-08-25T06:12:15;8.68;;;7.75;;
27985;SDS011;15453;53.692;10.168;2022-08-25T06:14:41;8.65;;;7.40;;
27985;SDS011;15453;53.692;10.168;2022-08-25T06:17:06;11.10;;;8.30;;
27985;SDS011;15453;53.692;10.168;2022-08-25T06:19:32;10.27;;;8.13;;
27985;SDS011;15453;53.692;10.168;2022-08-25T06:21:57;10.60;;;6.88;;
27985;SDS011;15453;53.692;10.168;2022-08-25T06:24:23;14.60;;;7.57;;
27985;SDS011;15453;53.692;10.168;2022-08-25T06:26:50;10.02;;;7.32;;
27985;SDS011;15453;53.692;10.168;2022-08-25T06:29:15;10.65;;;7.68;;
27985;SDS011;15453;53.692;10.168;2022-08-25T06:31:40;9.07;;;7.35;;
27985;SDS011;15453;53.692;10.168;2022-08-25T06:34:06;9.90;;;7.88;;
27985;SDS011;15453;53.692;10.168;2022-08-25T06:36:32;9.00;;;7.10;;
27985;SDS011;15453;53.692;10.168;2022-08-25T06:38:57;8.60;;;7.72;;
27985;SDS011;15453;53.692;10.168;2022-08-25T06:41:22;9.85;;;8.00;;
27985;SDS011;15453;53.692;10.168;2022-08-25T06:43:49;10.02;;;7.93;;
27985;SDS011;15453;53.692;10.168;2022-08-25T06:46:15;10.15;;;7.88;;
27985;SDS011;15453;53.692;10.168;2022-08-25T06:48:45;8.98;;;7.18;;
27985;SDS011;15453;53.692;10.168;2022-08-25T06:51:12;8.10;;;7.13;;
27985;SDS011;15453;53.692;10.168;2022-08-25T06:53:39;11.95;;;7.85;;
27985;SDS011;15453;53.692;10.168;2022-08-25T06:56:04;7.95;;;6.70;;
27985;SDS011;15453;53.692;10.168;2022-08-25T06:58:30;9.07;;;7.15;;
27985;SDS011;15453;53.692;10.168;2022-08-25T07:00:56;9.70;;;6.93;;
27985;SDS011;15453;53.692;10.168;2022-08-25T07:03:21;10.48;;;7.20;;
27985;SDS011;15453;53.692;10.168;2022-08-25T07:05:50;10.05;;;7.80;;
27985;SDS011;15453;53.692;10.168;2022-08-25T07:08:17;10.85;;;8.60;;
27985;SDS011;15453;53.692;10.168;2022-08-25T07:10:43;9.30;;;7.75;;
27985;SDS011;15453;53.692;10.168;2022-08-25T07:13:08;9.40;;;8.25;;
27985;SDS011;15453;53.692;10.168;2022-08-25T07:15:36;10.07;;;7.30;;
27985;SDS011;15453;53.692;10.168;2022-08-25T07:18:03;8.05;;;6.15;;
27985;SDS011;15453;53.692;10.168;2022-08-25T07:20:28;8.23;;;6.75;;
27985;SDS011;15453;53.692;10.168;2022-08-25T07:22:55;8.10;;;7.30;;
27985;SDS011;15453;53.692;10.168;2022-08-25T07:25:20;9.25;;;7.75;;
27985;SDS011;15453;53.692;10.168;2022-08-25T07:27:46;7.70;;;6.63;;
27985;SDS011;15453;53.692;10.168;2022-08-25T07:30:11;9.35;;;7.40;;
27985;SDS011;15453;53.692;10.168;2022-08-25T07:32:36;6.80;;;6.10;;
27985;SDS011;15453;53.692;10.168;2022-08-25T07:35:02;10.90;;;8.18;;
27985;SDS011;15453;53.692;10.168;2022-08-25T07:37:40;8.55;;;7.65;;
27985;SDS011;15453;53.692;10.168;2022-08-25T07:40:08;10.10;;;8.18;;
27985;SDS011;15453;53.692;10.168;2022-08-25T07:42:35;9.65;;;7.63;;
27985;SDS011;15453;53.692;10.168;2022-08-25T07:45:02;14.75;;;8.82;;
27985;SDS011;15453;53.692;10.168;2022-08-25T07:47:29;10.38;;;7.43;;
27985;SDS011;15453;53.692;10.168;2022-08-25T07:49:54;9.18;;;7.65;;
27985;SDS011;15453;53.692;10.168;2022-08-25T07:52:19;8.25;;;7.30;;
27985;SDS011;15453;53.692;10.168;2022-08-25T07:54:44;14.93;;;7.85;;
27985;SDS011;15453;53.692;10.168;2022-08-25T07:57:10;10.25;;;8.32;;
27985;SDS011;15453;53.692;10.168;2022-08-25T07:59:39;9.35;;;7.68;;
27985;SDS011;15453;53.692;10.168;2022-08-25T08:04:30;7.53;;;6.82;;
27985;SDS011;15453;53.692;10.168;2022-08-25T08:06:56;9.38;;;7.80;;
27985;SDS011;15453;53.692;10.168;2022-08-25T08:09:21;9.00;;;7.43;;
27985;SDS011;15453;53.692;10.168;2022-08-25T08:11:46;9.23;;;7.68;;
27985;SDS011;15453;53.692;10.168;2022-08-25T08:14:12;10.75;;;8.10;;
27985;SDS011;15453;53.692;10.168;2022-08-25T08:16:37;14.10;;;9.18;;
27985;SDS011;15453;53.692;10.168;2022-08-25T08:19:03;11.88;;;9.63;;
27985;SDS011;15453;53.692;10.168;2022-08-25T08:21:30;12.63;;;9.40;;
27985;SDS011;15453;53.692;10.168;2022-08-25T08:23:57;12.50;;;10.25;;
27985;SDS011;15453;53.692;10.168;2022-08-25T08:26:24;14.85;;;11.65;;
27985;SDS011;15453;53.692;10.168;2022-08-25T08:28:52;15.27;;;13.50;;
27985;SDS011;15453;53.692;10.168;2022-08-25T08:31:18;16.63;;;12.60;;
27985;SDS011;15453;53.692;10.168;2022-08-25T08:33:45;14.85;;;10.75;;
27985;SDS011;15453;53.692;10.168;2022-08-25T08:36:11;11.23;;;10.02;;
27985;SDS011;15453;53.692;10.168;2022-08-25T08:38:37;13.05;;;10.18;;
27985;SDS011;15453;53.692;10.168;2022-08-25T08:41:11;14.00;;;10.25;;
27985;SDS011;15453;53.692;10.168;2022-08-25T08:49:26;8.93;;;7.53;;
27985;SDS011;15453;53.692;10.168;2022-08-25T08:52:00;10.88;;;7.55;;
27985;SDS011;15453;53.692;10.168;2022-08-25T08:54:28;13.15;;;7.85;;
27985;SDS011;15453;53.692;10.168;2022-08-25T08:57:10;12.57;;;7.38;;
27985;SDS011;15453;53.692;10.168;2022-08-25T08:59:43;8.80;;;6.82;;
27985;SDS011;15453;53.692;10.168;2022-08-25T09:02:47;8.82;;;6.35;;
27985;SDS011;15453;53.692;10.168;2022-08-25T09:05:10;8.65;;;5.95;;
27985;SDS011;15453;53.692;10.168;2022-08-25T09:07:39;8.13;;;5.60;;
27985;SDS011;15453;53.692;10.168;2022-08-25T09:10:12;5.70;;;4.40;;
27985;SDS011;15453;53.692;10.168;2022-08-25T09:12:40;6.70;;;4.55;;
27985;SDS011;15453;53.692;10.168;2022-08-25T09:15:28;9.55;;;5.05;;
27985;SDS011;15453;53.692;10.168;2022-08-25T09:21:11;10.60;;;4.80;;
27985;SDS011;15453;53.692;10.168;2022-08-25T09:26:34;7.22;;;4.15;;
27985;SDS011;15453;53.692;10.168;2022-08-25T09:29:09;8.70;;;4.57;;
27985;SDS011;15453;53.692;10.168;2022-08-25T09:31:39;6.72;;;3.60;;
27985;SDS011;15453;53.692;10.168;2022-08-25T09:34:10;7.95;;;3.97;;
27985;SDS011;15453;53.692;10.168;2022-08-25T09:36:43;9.25;;;4.47;;
27985;SDS011;15453;53.692;10.168;2022-08-25T09:39:09;6.13;;;3.60;;
27985;SDS011;15453;53.692;10.168;2022-08-25T09:41:51;6.00;;;3.50;;
27985;SDS011;15453;53.692;10.168;2022-08-25T09:44:26;7.50;;;3.65;;
27985;SDS011;15453;53.692;10.168;2022-08-25T09:47:01;6.03;;;3.72;;
27985;SDS011;15453;53.692;10.168;2022-08-25T09:49:42;7.78;;;3.50;;
27985;SDS011;15453;53.692;10.168;2022-08-25T09:52:29;7.32;;;3.60;;
27985;SDS011;15453;53.692;10.168;2022-08-25T09:54:58;8.50;;;3.63;;
27985;SDS011;15453;53.692;10.168;2022-08-25T09:57:34;9.30;;;3.35;;
27985;SDS011;15453;53.692;10.168;2022-08-25T10:02:41;11.07;;;4.53;;
27985;SDS011;15453;53.692;10.168;2022-08-25T10:05:19;7.05;;;3.22;;
27985;SDS011;15453;53.692;10.168;2022-08-25T10:07:48;8.70;;;3.25;;
27985;SDS011;15453;53.692;10.168;2022-08-25T10:10:17;6.63;;;3.47;;
27985;SDS011;15453;53.692;10.168;2022-08-25T10:12:57;10.63;;;3.20;;
27985;SDS011;15453;53.692;10.168;2022-08-25T10:15:30;6.05;;;3.58;;
27985;SDS011;15453;53.692;10.168;2022-08-25T10:18:22;7.70;;;3.40;;
27985;SDS011;15453;53.692;10.168;2022-08-25T10:21:09;4.60;;;3.00;;
27985;SDS011;15453;53.692;10.168;2022-08-25T10:23:58;5.70;;;3.08;;
27985;SDS011;15453;53.692;10.168;2022-08-25T10:29:22;5.03;;;3.10;;
27985;SDS011;15453;53.692;10.168;2022-08-25T10:35:16;5.00;;;2.88;;
27985;SDS011;15453;53.692;10.168;2022-08-25T10:40:51;6.07;;;2.90;;
27985;SDS011;15453;53.692;10.168;2022-08-25T10:43:32;4.68;;;2.75;;
27985;SDS011;15453;53.692;10.168;2022-08-25T10:46:03;4.00;;;2.58;;
27985;SDS011;15453;53.692;10.168;2022-08-25T10:56:28;5.75;;;2.95;;
27985;SDS011;15453;53.692;10.168;2022-08-25T10:59:12;10.27;;;3.78;;
27985;SDS011;15453;53.692;10.168;2022-08-25T11:01:58;6.28;;;3.00;;
27985;SDS011;15453;53.692;10.168;2022-08-25T11:07:21;4.93;;;2.90;;
27985;SDS011;15453;53.692;10.168;2022-08-25T11:09:51;3.95;;;2.35;;
27985;SDS011;15453;53.692;10.168;2022-08-25T11:12:41;6.47;;;2.75;;
27985;SDS011;15453;53.692;10.168;2022-08-25T11:15:11;9.70;;;2.53;;
27985;SDS011;15453;53.692;10.168;2022-08-25T11:17:54;5.85;;;2.67;;
27985;SDS011;15453;53.692;10.168;2022-08-25T11:20:25;3.97;;;2.33;;
27985;SDS011;15453;53.692;10.168;2022-08-25T11:25:52;3.70;;;2.17;;
27985;SDS011;15453;53.692;10.168;2022-08-25T11:30:55;5.45;;;2.35;;
27985;SDS011;15453;53.692;10.168;2022-08-25T11:33:23;6.07;;;2.63;;
27985;SDS011;15453;53.692;10.168;2022-08-25T11:35:52;3.33;;;2.05;;
27985;SDS011;15453;53.692;10.168;2022-08-25T11:50:30;5.65;;;2.60;;
27985;SDS011;15453;53.692;10.168;2022-08-25T11:53:13;6.22;;;2.65;;
27985;SDS011;15453;53.692;10.168;2022-08-25T11:55:45;5.50;;;2.55;;
27985;SDS011;15453;53.692;10.168;2022-08-25T12:00:50;5.90;;;2.40;;
27985;SDS011;15453;53.692;10.168;2022-08-25T12:08:50;5.78;;;2.40;;
27985;SDS011;15453;53.692;10.168;2022-08-25T12:21:47;6.47;;;2.50;;
27985;SDS011;15453;53.692;10.168;2022-08-25T12:24:13;5.15;;;2.20;;
27985;SDS011;15453;53.692;10.168;2022-08-25T12:29:29;3.00;;;1.92;;
27985;SDS011;15453;53.692;10.168;2022-08-25T12:32:11;3.05;;;1.85;;
27985;SDS011;15453;53.692;10.168;2022-08-25T12:35:09;3.63;;;2.33;;
27985;SDS011;15453;53.692;10.168;2022-08-25T12:37:55;5.55;;;2.05;;
27985;SDS011;15453;53.692;10.168;2022-08-25T12:40:30;6.03;;;2.35;;
27985;SDS011;15453;53.692;10.168;2022-08-25T12:42:59;4.22;;;2.13;;
27985;SDS011;15453;53.692;10.168;2022-08-25T12:48:39;5.55;;;2.08;;
27985;SDS011;15453;53.692;10.168;2022-08-25T12:51:07;7.80;;;2.50;;
27985;SDS011;15453;53.692;10.168;2022-08-25T12:53:41;4.18;;;2.10;;
27985;SDS011;15453;53.692;10.168;2022-08-25T12:56:21;5.57;;;2.30;;
27985;SDS011;15453;53.692;10.168;2022-08-25T13:07:54;3.70;;;2.10;;
27985;SDS011;15453;53.692;10.168;2022-08-25T13:10:02;6.35;;;2.40;;
27985;SDS011;15453;53.692;10.168;2022-08-25T13:12:46;3.58;;;2.00;;
27985;SDS011;15453;53.692;10.168;2022-08-25T13:18:25;6.20;;;2.10;;
27985;SDS011;15453;53.692;10.168;2022-08-25T13:20:54;7.78;;;2.33;;
27985;SDS011;15453;53.692;10.168;2022-08-25T13:23:29;3.92;;;2.17;;
27985;SDS011;15453;53.692;10.168;2022-08-25T13:25:57;6.75;;;2.00;;
27985;SDS011;15453;53.692;10.168;2022-08-25T13:28:25;5.80;;;2.30;;
27985;SDS011;15453;53.692;10.168;2022-08-25T13:30:57;10.55;;;3.10;;
27985;SDS011;15453;53.692;10.168;2022-08-25T13:33:25;5.60;;;2.42;;
27985;SDS011;15453;53.692;10.168;2022-08-25T13:35:53;7.15;;;2.10;;
27985;SDS011;15453;53.692;10.168;2022-08-25T13:38:38;4.35;;;2.10;;
27985;SDS011;15453;53.692;10.168;2022-08-25T13:41:04;4.25;;;1.98;;
27985;SDS011;15453;53.692;10.168;2022-08-25T13:43:31;8.07;;;2.10;;
27985;SDS011;15453;53.692;10.168;2022-08-25T13:45:57;3.65;;;1.98;;
27985;SDS011;15453;53.692;10.168;2022-08-25T13:48:33;2.53;;;2.00;;
27985;SDS011;15453;53.692;10.168;2022-08-25T13:53:56;6.55;;;2.08;;
27985;SDS011;15453;53.692;10.168;2022-08-25T13:56:31;3.58;;;2.42;;
27985;SDS011;15453;53.692;10.168;2022-08-25T13:58:58;4.40;;;2.13;;
27985;SDS011;15453;53.692;10.168;2022-08-25T14:01:27;3.80;;;2.40;;
27985;SDS011;15453;53.692;10.168;2022-08-25T14:03:55;8.48;;;2.08;;
27985;SDS011;15453;53.692;10.168;2022-08-25T14:06:41;5.75;;;2.65;;
27985;SDS011;15453;53.692;10.168;2022-08-25T14:09:11;2.83;;;1.95;;
27985;SDS011;15453;53.692;10.168;2022-08-25T14:11:45;8.00;;;2.80;;
27985;SDS011;15453;53.692;10.168;2022-08-25T14:14:34;6.28;;;2.50;;
27985;SDS011;15453;53.692;10.168;2022-08-25T14:19:27;7.40;;;3.40;;
27985;SDS011;15453;53.692;10.168;2022-08-25T14:21:53;2.13;;;1.92;;
27985;SDS011;15453;53.692;10.168;2022-08-25T14:24:20;4.75;;;2.95;;
27985;SDS011;15453;53.692;10.168;2022-08-25T14:26:47;8.13;;;2.90;;
27985;SDS011;15453;53.692;10.168;2022-08-25T14:29:13;4.60;;;2.78;;
27985;SDS011;15453;53.692;10.168;2022-08-25T14:31:40;3.58;;;2.10;;
27985;SDS011;15453;53.692;10.168;2022-08-25T14:34:18;3.90;;;2.57;;
27985;SDS011;15453;53.692;10.168;2022-08-25T14:36:45;4.80;;;2.25;;
27985;SDS011;15453;53.692;10.168;2022-08-25T14:39:12;5.43;;;2.38;;
27985;SDS011;15453;53.692;10.168;2022-08-25T14:41:38;4.28;;;2.30;;
27985;SDS011;15453;53.692;10.168;2022-08-25T14:44:06;3.60;;;1.98;;
27985;SDS011;15453;53.692;10.168;2022-08-25T14:46:33;3.30;;;2.15;;
27985;SDS011;15453;53.692;10.168;2022-08-25T14:49:05;9.10;;;2.30;;
27985;SDS011;15453;53.692;10.168;2022-08-25T14:51:34;3.15;;;2.20;;
27985;SDS011;15453;53.692;10.168;2022-08-25T14:54:01;4.38;;;2.50;;
27985;SDS011;15453;53.692;10.168;2022-08-25T14:56:30;5.45;;;2.72;;
27985;SDS011;15453;53.692;10.168;2022-08-25T14:58:56;8.07;;;2.20;;
27985;SDS011;15453;53.692;10.168;2022-08-25T15:01:22;3.83;;;2.30;;
27985;SDS011;15453;53.692;10.168;2022-08-25T15:03:49;3.15;;;2.05;;
27985;SDS011;15453;53.692;10.168;2022-08-25T15:06:19;4.05;;;2.80;;
27985;SDS011;15453;53.692;10.168;2022-08-25T15:08:44;4.57;;;2.90;;
27985;SDS011;15453;53.692;10.168;2022-08-25T15:11:28;9.50;;;3.10;;
27985;SDS011;15453;53.692;10.168;2022-08-25T15:13:54;5.53;;;3.08;;
27985;SDS011;15453;53.692;10.168;2022-08-25T15:16:25;6.15;;;2.45;;
27985;SDS011;15453;53.692;10.168;2022-08-25T15:18:53;5.70;;;2.38;;
27985;SDS011;15453;53.692;10.168;2022-08-25T15:21:18;2.65;;;2.03;;
27985;SDS011;15453;53.692;10.168;2022-08-25T15:23:43;4.27;;;2.10;;
27985;SDS011;15453;53.692;10.168;2022-08-25T15:26:10;6.03;;;2.55;;
27985;SDS011;15453;53.692;10.168;2022-08-25T15:28:37;5.25;;;2.20;;
27985;SDS011;15453;53.692;10.168;2022-08-25T15:33:31;6.47;;;2.78;;
27985;SDS011;15453;53.692;10.168;2022-08-25T15:35:56;4.67;;;3.00;;
27985;SDS011;15453;53.692;10.168;2022-08-25T15:38:22;7.40;;;2.65;;
27985;SDS011;15453;53.692;10.168;2022-08-25T15:40:48;3.33;;;2.30;;
27985;SDS011;15453;53.692;10.168;2022-08-25T15:43:14;5.65;;;2.78;;
27985;SDS011;15453;53.692;10.168;2022-08-25T15:45:40;11.68;;;2.40;;
27985;SDS011;15453;53.692;10.168;2022-08-25T15:48:05;5.85;;;2.38;;
27985;SDS011;15453;53.692;10.168;2022-08-25T15:50:30;4.95;;;2.70;;
27985;SDS011;15453;53.692;10.168;2022-08-25T15:52:56;5.40;;;2.50;;
27985;SDS011;15453;53.692;10.168;2022-08-25T15:55:21;6.45;;;2.45;;
27985;SDS011;15453;53.692;10.168;2022-08-25T15:57:47;7.13;;;2.58;;
27985;SDS011;15453;53.692;10.168;2022-08-25T16:00:12;5.70;;;2.45;;
27985;SDS011;15453;53.692;10.168;2022-08-25T16:02:38;7.50;;;2.53;;
27985;SDS011;15453;53.692;10.168;2022-08-25T16:05:06;6.15;;;2.22;;
27985;SDS011;15453;53.692;10.168;2022-08-25T16:07:32;7.80;;;2.60;;
27985;SDS011;15453;53.692;10.168;2022-08-25T16:09:58;7.20;;;2.50;;
27985;SDS011;15453;53.692;10.168;2022-08-25T16:12:24;5.63;;;2.60;;
27985;SDS011;15453;53.692;10.168;2022-08-25T16:14:49;6.90;;;2.40;;
27985;SDS011;15453;53.692;10.168;2022-08-25T16:17:15;7.88;;;2.30;;
27985;SDS011;15453;53.692;10.168;2022-08-25T16:19:40;5.85;;;2.60;;
27985;SDS011;15453;53.692;10.168;2022-08-25T16:22:05;5.80;;;2.30;;